Time;durP1;ratioP1;P1;durP2;ratioP2;P2;SDS_P1;SDS_P2;PMS_P1;PMS_P2;Temp;Humidity;BMP_temperature;BMP_pressure;BME280_temperature;BME280_humidity;BME280_pressure;Samples;Min_cycle;Max_cycle;Signal;HPM_P1;HPM_P2
2023/01/14 00:02:20;;;;;;;10.98;1.80;;;7.80;99.90;;;;;;4997581;28;20087;-94
2023/01/14 00:05:06;;;;;;;;;;;;;;;;;;;;;
2023/01/14 00:07:50;;;;;;;7.95;1.65;;;7.80;99.90;;;;;;5032818;28;20502;-94
2023/01/14 00:10:19;;;;;;;10.85;1.85;;;7.70;99.90;;;;;;5019533;28;20519;-94
2023/01/14 00:13:07;;;;;;;9.07;1.38;;;7.70;99.90;;;;;;5013143;28;20045;-94
2023/01/14 00:15:39;;;;;;;8.07;1.65;;;7.70;99.90;;;;;;4993842;28;20057;-94
2023/01/14 00:18:13;;;;;;;7.10;1.73;;;7.70;99.90;;;;;;4995819;28;20060;-94
2023/01/14 00:20:54;;;;;;;7.43;1.35;;;7.70;99.90;;;;;;5022518;28;20423;-94
2023/01/14 00:23:42;;;;;;;11.10;1.75;;;7.70;99.90;;;;;;5089618;28;20515;-94
2023/01/14 00:26:19;;;;;;;16.20;2.20;;;7.80;99.90;;;;;;5076231;28;20085;-94
2023/01/14 00:29:06;;;;;;;15.50;2.45;;;7.80;99.90;;;;;;5085783;28;20052;-93
2023/01/14 00:31:43;;;;;;;10.77;1.98;;;7.80;99.90;;;;;;5093234;28;20074;-94
2023/01/14 00:34:27;;;;;;;16.20;1.80;;;7.80;99.90;;;;;;5077088;28;20047;-94
2023/01/14 00:37:05;;;;;;;8.68;1.67;;;7.80;99.90;;;;;;5076665;28;20135;-93
2023/01/14 00:39:34;;;;;;;13.27;1.65;;;7.80;99.90;;;;;;5096525;28;20028;-93
2023/01/14 00:42:16;;;;;;;8.30;1.67;;;7.80;99.90;;;;;;5110255;28;20048;-93
2023/01/14 00:45:01;;;;;;;6.03;1.50;;;7.80;99.90;;;;;;5090379;28;20047;-94
2023/01/14 00:47:57;;;;;;;8.90;1.70;;;7.80;99.90;;;;;;5095381;28;20040;-93
2023/01/14 00:50:36;;;;;;;9.95;2.17;;;7.80;99.90;;;;;;5077603;28;20075;-94
2023/01/14 00:53:05;;;;;;;10.30;1.85;;;7.80;99.90;;;;;;5085024;28;20096;-94
2023/01/14 00:55:37;;;;;;;12.27;1.93;;;7.80;99.90;;;;;;5077878;28;20038;-95
2023/01/14 00:58:56;;;;;;;11.35;1.85;;;7.80;99.90;;;;;;5095927;28;20416;-95
2023/01/14 01:01:38;;;;;;;12.57;1.90;;;7.80;99.90;;;;;;5076462;28;20452;-94
2023/01/14 01:04:31;;;;;;;13.90;2.55;;;7.70;99.90;;;;;;5067232;28;20079;-94
2023/01/14 01:07:05;;;;;;;11.27;2.00;;;7.70;99.90;;;;;;5010939;28;20049;-94
2023/01/14 01:09:41;;;;;;;13.35;2.05;;;7.60;99.90;;;;;;4984188;28;20141;-94
2023/01/14 01:12:26;;;;;;;11.10;2.97;;;7.60;99.90;;;;;;4995515;28;20042;-94
2023/01/14 01:14:59;;;;;;;10.02;2.33;;;7.60;99.90;;;;;;4999596;28;20455;-94
2023/01/14 01:17:29;;;;;;;10.00;1.83;;;7.60;99.90;;;;;;5007653;28;20058;-93
2023/01/14 01:19:59;;;;;;;15.00;2.55;;;7.60;99.90;;;;;;4983496;28;20084;-94
2023/01/14 01:22:34;;;;;;;8.77;1.83;;;7.60;99.90;;;;;;4976719;28;20100;-93
2023/01/14 01:25:02;;;;;;;7.50;1.60;;;7.60;99.90;;;;;;4976556;28;20050;-93
2023/01/14 01:27:40;;;;;;;11.85;2.58;;;7.70;99.90;;;;;;4999703;28;20075;-94
2023/01/14 01:30:10;;;;;;;12.68;2.05;;;7.70;99.90;;;;;;4975487;28;20128;-94
2023/01/14 01:32:38;;;;;;;10.80;2.03;;;7.70;99.90;;;;;;5028090;28;20052;-94
2023/01/14 01:35:05;;;;;;;15.27;3.08;;;7.70;99.90;;;;;;5029050;28;20042;-93
2023/01/14 01:37:31;;;;;;;16.15;2.30;;;7.70;99.90;;;;;;5011531;28;20049;-93
2023/01/14 01:40:07;;;;;;;11.63;1.80;;;7.70;99.90;;;;;;4983836;28;20038;-93
2023/01/14 01:42:54;;;;;;;13.43;2.33;;;7.70;99.90;;;;;;4976587;28;20045;-93
2023/01/14 01:45:46;;;;;;;10.70;2.35;;;7.70;99.90;;;;;;5065995;28;20118;-94
2023/01/14 01:48:33;;;;;;;9.50;2.05;;;7.70;99.90;;;;;;5076496;28;20028;-94
2023/01/14 01:51:18;;;;;;;14.57;2.67;;;7.70;99.90;;;;;;5074071;28;20071;-94
2023/01/14 01:53:56;;;;;;;16.77;1.93;;;7.70;99.90;;;;;;5079329;28;20100;-94
2023/01/14 01:56:45;;;;;;;10.93;1.90;;;7.70;99.90;;;;;;5080315;28;20350;-95
2023/01/14 01:59:23;;;;;;;10.73;2.30;;;7.60;99.90;;;;;;5087920;28;20048;-94
2023/01/14 02:02:03;;;;;;;11.95;2.03;;;7.60;99.90;;;;;;5079368;28;20051;-93
2023/01/14 02:04:36;;;;;;;16.58;2.40;;;7.60;99.90;;;;;;5070059;28;20044;-94
2023/01/14 02:07:26;;;;;;;;;;;;;;;;;;;;;
2023/01/14 02:10:07;;;;;;;12.88;2.30;;;7.60;99.90;;;;;;5092853;28;20090;-93
2023/01/14 02:13:12;;;;;;;12.02;1.88;;;7.60;99.90;;;;;;5080021;28;20082;-94
2023/01/14 02:15:45;;;;;;;8.00;1.77;;;7.70;99.90;;;;;;4983570;28;20508;-93
2023/01/14 02:18:20;;;;;;;10.90;1.90;;;7.70;99.90;;;;;;4959262;28;20539;-94
2023/01/14 02:21:04;;;;;;;17.60;2.67;;;7.70;99.90;;;;;;4975138;28;20050;-94
2023/01/14 02:24:11;;;;;;;14.93;2.80;;;7.70;99.90;;;;;;4959895;28;20055;-94
2023/01/14 02:27:10;;;;;;;17.15;2.15;;;7.70;99.90;;;;;;4950743;28;20431;-93
2023/01/14 02:30:10;;;;;;;10.38;1.88;;;7.80;99.90;;;;;;4979162;28;20046;-94
2023/01/14 02:32:48;;;;;;;21.15;2.55;;;7.70;99.90;;;;;;4994177;28;20081;-94
2023/01/14 02:35:32;;;;;;;9.48;1.85;;;7.70;99.90;;;;;;4995915;28;20042;-94
2023/01/14 02:38:24;;;;;;;12.05;2.05;;;7.70;99.90;;;;;;4978501;28;20054;-94
2023/01/14 02:44:46;;;;;;;11.90;2.63;;;7.80;99.90;;;;;;4964395;28;20050;-94
2023/01/14 02:47:37;;;;;;;14.05;2.22;;;7.80;99.90;;;;;;4994595;28;20532;-94
2023/01/14 02:50:11;;;;;;;8.07;1.83;;;7.70;99.90;;;;;;4994713;28;20125;-94
2023/01/14 02:52:46;;;;;;;14.75;2.38;;;7.70;99.90;;;;;;5031581;28;20054;-93
2023/01/14 02:55:38;;;;;;;11.75;2.15;;;7.70;99.90;;;;;;5075398;28;20158;-93
2023/01/14 02:58:07;;;;;;;10.43;2.05;;;7.80;99.90;;;;;;5059799;28;20098;-94
2023/01/14 03:00:56;;;;;;;12.57;2.00;;;7.70;99.90;;;;;;5076827;28;20091;-94
2023/01/14 03:03:42;;;;;;;9.30;2.08;;;7.70;99.90;;;;;;5040657;28;20043;-93
2023/01/14 03:06:42;;;;;;;14.48;2.38;;;7.70;99.90;;;;;;5095885;28;20094;-94
2023/01/14 03:09:32;;;;;;;14.80;2.22;;;7.70;99.90;;;;;;5077479;28;20063;-94
2023/01/14 03:12:22;;;;;;;7.85;1.38;;;7.70;99.90;;;;;;5078089;28;20035;-94
2023/01/14 03:15:25;;;;;;;12.35;2.50;;;7.70;99.90;;;;;;5066362;28;20044;-94
2023/01/14 03:18:21;;;;;;;13.25;2.03;;;7.70;99.90;;;;;;5058238;28;20386;-93
2023/01/14 03:21:09;;;;;;;10.88;2.42;;;7.70;99.90;;;;;;5065815;28;20044;-94
2023/01/14 03:24:02;;;;;;;10.07;1.77;;;7.70;99.90;;;;;;5033286;28;20259;-94
2023/01/14 03:26:36;;;;;;;10.13;2.10;;;7.60;99.90;;;;;;5031586;28;20037;-93
2023/01/14 03:29:42;;;;;;;13.85;2.17;;;7.60;99.90;;;;;;5032688;28;20053;-94
2023/01/14 03:32:57;;;;;;;12.77;2.40;;;7.50;99.90;;;;;;4978068;28;20084;-93
2023/01/14 03:35:37;;;;;;;13.57;2.15;;;7.40;99.90;;;;;;5013991;28;20045;-93
2023/01/14 03:38:24;;;;;;;14.18;1.67;;;7.30;99.90;;;;;;5018472;28;20092;-93
2023/01/14 03:40:59;;;;;;;14.60;1.90;;;7.20;99.90;;;;;;5052640;28;20532;-94
2023/01/14 03:43:48;;;;;;;11.98;1.77;;;7.20;99.90;;;;;;5053681;28;20049;-93
2023/01/14 03:46:17;;;;;;;10.32;1.77;;;7.10;99.90;;;;;;5024571;28;20131;-94
2023/01/14 03:48:46;;;;;;;12.55;2.80;;;7.00;99.90;;;;;;5012442;28;20916;-93
2023/01/14 03:51:24;;;;;;;9.20;1.52;;;7.00;99.90;;;;;;5013059;28;20048;-93
2023/01/14 03:54:18;;;;;;;11.02;1.88;;;6.90;99.90;;;;;;5024356;28;20063;-94
2023/01/14 03:57:03;;;;;;;16.08;2.58;;;6.90;99.90;;;;;;5071175;28;20047;-93
2023/01/14 03:59:55;;;;;;;9.82;1.80;;;6.80;99.90;;;;;;5077692;28;20126;-94
2023/01/14 04:02:25;;;;;;;13.27;2.63;;;6.90;99.90;;;;;;5094393;28;20489;-93
2023/01/14 04:04:59;;;;;;;;;;;6.80;99.90;;;;;;5083409;28;20093;-93
2023/01/14 04:07:34;;;;;;;16.85;2.38;;;6.80;99.90;;;;;;5077030;28;20430;-94
2023/01/14 04:10:03;;;;;;;10.27;3.33;;;6.80;99.90;;;;;;5076599;28;20040;-93
2023/01/14 04:12:29;;;;;;;14.88;2.35;;;6.80;99.90;;;;;;5093846;28;20039;-94
2023/01/14 04:17:48;;;;;;;13.43;2.42;;;6.80;99.90;;;;;;5094203;28;20047;-93
2023/01/14 04:20:28;;;;;;;12.18;2.08;;;6.80;99.90;;;;;;5072346;28;20036;-94
2023/01/14 04:23:05;;;;;;;15.55;2.83;;;6.80;99.90;;;;;;5074341;28;20059;-94
2023/01/14 04:25:32;;;;;;;16.42;3.83;;;6.80;99.90;;;;;;5077579;28;20035;-93
2023/01/14 04:28:07;;;;;;;16.02;2.58;;;6.80;99.90;;;;;;5085812;28;20047;-93
2023/01/14 04:30:43;;;;;;;15.95;3.42;;;6.80;99.90;;;;;;5056007;28;20047;-94
2023/01/14 04:33:22;;;;;;;14.65;2.38;;;6.80;99.90;;;;;;5090164;28;20047;-94
2023/01/14 04:35:49;;;;;;;10.50;2.03;;;6.80;99.90;;;;;;5094548;28;20054;-93
2023/01/14 04:38:33;;;;;;;17.83;3.13;;;6.80;99.90;;;;;;5074677;28;20504;-93
2023/01/14 04:41:04;;;;;;;19.58;4.20;;;6.80;99.90;;;;;;5093252;28;20045;-94
2023/01/14 04:43:45;;;;;;;18.35;2.50;;;6.80;99.90;;;;;;5110316;28;20425;-94
2023/01/14 04:46:20;;;;;;;15.18;3.13;;;6.70;99.90;;;;;;5094842;28;20485;-93
2023/01/14 04:48:51;;;;;;;11.77;2.33;;;6.70;99.90;;;;;;5093103;28;20075;-93
2023/01/14 04:51:33;;;;;;;10.55;2.15;;;6.70;99.90;;;;;;5086001;28;20047;-94
2023/01/14 04:54:01;;;;;;;16.80;3.05;;;6.60;99.90;;;;;;5073714;28;20123;-94
2023/01/14 04:56:27;;;;;;;12.55;3.00;;;6.60;99.90;;;;;;5057371;28;20361;-95
2023/01/14 04:58:52;;;;;;;11.13;2.25;;;6.60;99.90;;;;;;5072347;28;20043;-93
2023/01/14 05:01:18;;;;;;;18.80;3.15;;;6.60;99.90;;;;;;5093108;28;20039;-93
2023/01/14 05:03:44;;;;;;;19.55;3.40;;;6.60;99.90;;;;;;5076052;28;20531;-92
2023/01/14 05:06:09;;;;;;;11.70;2.92;;;6.60;99.90;;;;;;5076906;28;20035;-93
2023/01/14 05:08:35;;;;;;;14.32;2.88;;;6.60;99.90;;;;;;5075850;28;20399;-93
2023/01/14 05:11:00;;;;;;;19.60;3.05;;;6.50;99.90;;;;;;5075353;28;20567;-93
2023/01/14 05:13:26;;;;;;;13.48;2.65;;;6.50;99.90;;;;;;5076737;28;20046;-94
2023/01/14 05:15:52;;;;;;;20.00;3.40;;;6.50;99.90;;;;;;5076364;28;20404;-93
2023/01/14 05:18:20;;;;;;;12.70;2.78;;;6.50;99.90;;;;;;5076294;28;20092;-93
2023/01/14 05:20:45;;;;;;;17.52;3.35;;;6.50;99.90;;;;;;5096387;28;20040;-94
2023/01/14 05:23:15;;;;;;;19.27;3.75;;;6.50;99.90;;;;;;5080076;28;20050;-94
2023/01/14 05:25:47;;;;;;;15.45;3.38;;;6.50;99.90;;;;;;5097709;28;20043;-93
2023/01/14 05:28:41;;;;;;;12.95;3.40;;;6.50;99.90;;;;;;5079797;28;20092;-93
2023/01/14 05:31:12;;;;;;;18.15;3.47;;;6.50;99.90;;;;;;5096570;28;20043;-93
2023/01/14 05:33:43;;;;;;;19.13;3.40;;;6.50;99.90;;;;;;5080391;28;20032;-93
2023/01/14 05:36:11;;;;;;;18.17;3.50;;;6.50;99.90;;;;;;5079900;28;20047;-93
2023/01/14 05:38:42;;;;;;;17.75;3.30;;;6.50;99.90;;;;;;5096356;28;20061;-94
2023/01/14 05:41:17;;;;;;;15.95;3.30;;;6.50;99.90;;;;;;5088373;28;20069;-93
2023/01/14 05:46:40;;;;;;;20.73;4.03;;;6.40;99.90;;;;;;5096020;28;20070;-94
2023/01/14 05:49:27;;;;;;;17.07;3.30;;;6.40;99.90;;;;;;5096514;28;20611;-93
2023/01/14 05:51:56;;;;;;;17.52;4.13;;;6.40;99.90;;;;;;5079675;28;20035;-93
2023/01/14 05:54:32;;;;;;;17.42;3.45;;;6.40;99.90;;;;;;5093289;28;20091;-93
2023/01/14 05:57:18;;;;;;;18.73;3.63;;;6.40;99.90;;;;;;5095743;28;20032;-94
2023/01/14 05:59:49;;;;;;;20.52;3.83;;;6.40;99.90;;;;;;5077260;28;20536;-93
2023/01/14 06:08:16;;;;;;;21.40;4.60;;;6.40;99.90;;;;;;5096054;28;20044;-94
2023/01/14 06:10:49;;;;;;;18.30;2.80;;;6.40;99.90;;;;;;5086920;28;20047;-93
2023/01/14 06:13:25;;;;;;;18.30;3.13;;;6.40;99.90;;;;;;5096280;28;20043;-92
2023/01/14 06:16:10;;;;;;;29.02;5.40;;;6.40;99.90;;;;;;5080000;28;20399;-94
2023/01/14 06:18:42;;;;;;;16.73;3.53;;;6.40;99.90;;;;;;5079903;28;20044;-94
2023/01/14 06:21:38;;;;;;;19.50;4.03;;;6.40;99.90;;;;;;5078499;28;20080;-93
2023/01/14 06:24:16;;;;;;;22.50;4.32;;;6.40;99.90;;;;;;5076026;28;20485;-93
2023/01/14 06:26:52;;;;;;;19.90;3.22;;;6.40;99.90;;;;;;5059756;28;20047;-94
2023/01/14 06:29:20;;;;;;;24.33;4.55;;;6.40;99.90;;;;;;5070730;28;20646;-94
2023/01/14 06:31:52;;;;;;;21.52;3.85;;;6.40;99.90;;;;;;5078860;28;20040;-93
2023/01/14 06:34:24;;;;;;;19.02;3.10;;;6.40;99.90;;;;;;5078969;28;20035;-94
2023/01/14 06:37:05;;;;;;;17.35;3.05;;;6.40;99.90;;;;;;5060708;28;20082;-94
2023/01/14 06:39:36;;;;;;;24.77;4.88;;;6.40;99.90;;;;;;5077461;28;20444;-93
2023/01/14 06:42:18;;;;;;;19.65;4.15;;;6.40;99.90;;;;;;5113653;28;20416;-93
2023/01/14 06:44:57;;;;;;;22.08;4.05;;;6.40;99.90;;;;;;5080166;28;20050;-94
2023/01/14 06:47:42;;;;;;;20.17;4.05;;;6.40;99.90;;;;;;5095456;28;20046;-94
2023/01/14 06:50:21;;;;;;;22.45;3.90;;;6.40;99.90;;;;;;5077163;28;20054;-94
2023/01/14 06:53:00;;;;;;;20.98;4.22;;;6.40;99.90;;;;;;5072262;28;20504;-94
2023/01/14 06:55:28;;;;;;;25.63;3.65;;;6.40;99.90;;;;;;5096316;28;20168;-94
2023/01/14 06:58:08;;;;;;;18.02;3.15;;;6.40;99.90;;;;;;5083049;28;20073;-94
2023/01/14 07:00:53;;;;;;;20.60;3.47;;;6.40;99.90;;;;;;5059341;28;20566;-94
2023/01/14 07:03:20;;;;;;;22.27;3.72;;;6.40;99.90;;;;;;5058527;28;20051;-93
2023/01/14 07:05:58;;;;;;;21.15;3.35;;;6.50;99.90;;;;;;5073935;28;20046;-94
2023/01/14 07:08:24;;;;;;;22.45;4.05;;;6.40;99.90;;;;;;5076046;28;20044;-94
2023/01/14 07:10:52;;;;;;;27.25;4.25;;;6.50;99.90;;;;;;5069099;28;20036;-94
2023/01/14 07:13:24;;;;;;;18.30;3.78;;;6.50;99.90;;;;;;5095521;28;20400;-94
2023/01/14 07:16:05;;;;;;;20.95;3.95;;;6.50;99.90;;;;;;5091887;28;20127;-93
2023/01/14 07:18:48;;;;;;;20.13;4.20;;;6.50;99.90;;;;;;5074985;28;20451;-93
2023/01/14 07:21:19;;;;;;;19.63;3.13;;;6.50;99.90;;;;;;5078549;28;20509;-93
2023/01/14 07:23:52;;;;;;;16.58;3.15;;;6.50;99.90;;;;;;5078168;28;20048;-94
2023/01/14 07:26:28;;;;;;;18.42;3.40;;;6.50;99.90;;;;;;5078206;28;20054;-93
2023/01/14 07:29:05;;;;;;;16.38;3.40;;;6.50;99.90;;;;;;5077962;28;20336;-94
2023/01/14 07:31:36;;;;;;;16.98;3.33;;;6.50;99.90;;;;;;5094392;28;20135;-94
2023/01/14 07:37:04;;;;;;;21.20;3.97;;;6.60;99.90;;;;;;4994596;28;20112;-93
2023/01/14 07:39:42;;;;;;;17.05;3.00;;;6.60;99.90;;;;;;4993838;28;20049;-94
2023/01/14 07:42:11;;;;;;;28.60;4.90;;;6.60;99.90;;;;;;4970236;28;20093;-93
2023/01/14 07:44:46;;;;;;;18.38;2.67;;;6.60;99.90;;;;;;4993967;28;20525;-94
2023/01/14 07:47:21;;;;;;;23.88;4.03;;;6.60;99.90;;;;;;4991987;28;20107;-94
2023/01/14 07:49:58;;;;;;;18.85;3.47;;;6.60;99.90;;;;;;5013176;28;20037;-94
2023/01/14 07:52:27;;;;;;;21.17;3.72;;;6.70;99.90;;;;;;5007611;28;20037;-92
2023/01/14 07:54:57;;;;;;;17.65;3.10;;;6.60;99.90;;;;;;4994193;28;20057;-93
2023/01/14 07:57:39;;;;;;;16.75;3.58;;;6.70;99.90;;;;;;4993666;28;20064;-94
2023/01/14 08:00:14;;;;;;;22.45;3.70;;;6.70;99.90;;;;;;4974250;28;20042;-94
2023/01/14 08:02:47;;;;;;;16.25;3.00;;;6.70;99.90;;;;;;4957273;28;20038;-94
2023/01/14 08:05:13;;;;;;;22.98;2.92;;;6.70;99.90;;;;;;4998553;28;20101;-93
2023/01/14 08:07:42;;;;;;;14.10;2.20;;;6.70;99.90;;;;;;5013016;28;20041;-93
2023/01/14 08:10:09;;;;;;;16.98;2.95;;;6.70;99.90;;;;;;5012218;28;20076;-92
2023/01/14 08:12:36;;;;;;;10.50;2.40;;;6.70;99.90;;;;;;5013214;28;20118;-93
2023/01/14 08:15:06;;;;;;;14.82;2.47;;;6.80;99.90;;;;;;5074445;28;20122;-94
2023/01/14 08:17:44;;;;;;;18.65;3.08;;;6.80;99.90;;;;;;5058548;28;20040;-93
2023/01/14 08:20:22;;;;;;;19.65;3.75;;;6.80;99.90;;;;;;5092983;28;20134;-93
2023/01/14 08:22:59;;;;;;;14.27;3.47;;;6.80;99.90;;;;;;5072904;28;20040;-93
2023/01/14 08:25:48;;;;;;;18.92;3.17;;;6.80;99.90;;;;;;5074197;28;20048;-93
2023/01/14 08:28:16;;;;;;;20.55;2.88;;;6.80;99.90;;;;;;5091126;28;20040;-94
2023/01/14 08:30:48;;;;;;;17.25;3.25;;;6.80;99.90;;;;;;5070832;28;20126;-93
2023/01/14 08:33:14;;;;;;;17.65;3.40;;;6.80;99.90;;;;;;5094102;28;20378;-94
2023/01/14 08:35:40;;;;;;;13.27;2.70;;;6.80;99.90;;;;;;5085698;28;20048;-95
2023/01/14 08:38:10;;;;;;;20.95;3.20;;;6.80;99.90;;;;;;5098284;28;20044;-94
2023/01/14 08:40:36;;;;;;;21.05;3.72;;;6.80;99.90;;;;;;5056507;28;20132;-94
2023/01/14 08:43:02;;;;;;;13.95;2.65;;;6.80;99.90;;;;;;5092403;28;20122;-94
2023/01/14 08:45:31;;;;;;;20.98;3.88;;;6.80;99.90;;;;;;5077174;28;20127;-94
2023/01/14 08:47:57;;;;;;;15.23;3.08;;;6.80;99.90;;;;;;5075227;28;20044;-93
2023/01/14 08:50:25;;;;;;;10.98;2.42;;;6.80;99.90;;;;;;5056867;28;20063;-94
2023/01/14 08:52:54;;;;;;;16.95;2.22;;;6.90;99.90;;;;;;5056858;28;20113;-93
2023/01/14 08:55:19;;;;;;;19.63;2.38;;;6.80;99.90;;;;;;5099022;28;20044;-93
2023/01/14 08:57:48;;;;;;;20.02;2.50;;;6.90;99.90;;;;;;5111276;28;20706;-94
2023/01/14 09:00:17;;;;;;;17.90;2.80;;;6.90;99.90;;;;;;5088152;28;20039;-94
2023/01/14 09:02:43;;;;;;;14.52;3.33;;;6.90;99.90;;;;;;5056300;28;20075;-92
2023/01/14 09:05:09;;;;;;;14.55;2.38;;;6.90;99.90;;;;;;5057230;28;20521;-95
2023/01/14 09:18:46;;;;;;;16.23;2.80;;;6.90;99.90;;;;;;5092352;28;20056;-94
2023/01/14 09:21:12;;;;;;;14.00;2.95;;;7.00;99.90;;;;;;5075368;28;20036;-94
2023/01/14 09:23:41;;;;;;;12.52;2.63;;;7.00;99.90;;;;;;5076131;28;20044;-94
2023/01/14 09:26:06;;;;;;;15.85;2.22;;;7.00;99.90;;;;;;5081168;28;20666;-94
2023/01/14 09:28:32;;;;;;;15.63;3.22;;;7.00;99.90;;;;;;5092674;28;20047;-93
2023/01/14 09:30:58;;;;;;;12.30;2.30;;;7.00;99.90;;;;;;5109160;28;20077;-92
2023/01/14 09:33:24;;;;;;;11.88;1.88;;;7.00;99.90;;;;;;5081548;28;20043;-93
2023/01/14 09:35:52;;;;;;;10.30;2.00;;;7.00;99.90;;;;;;5064465;28;20047;-94
2023/01/14 09:38:18;;;;;;;13.30;2.63;;;7.00;99.90;;;;;;5058310;28;20044;-93
2023/01/14 09:40:56;;;;;;;14.07;2.35;;;7.10;99.90;;;;;;5076105;28;20046;-94
2023/01/14 09:43:29;;;;;;;9.40;1.90;;;7.10;99.90;;;;;;5076081;28;20044;-94
2023/01/14 09:46:00;;;;;;;9.57;2.72;;;7.10;99.90;;;;;;5075137;28;20230;-94
2023/01/14 09:48:33;;;;;;;10.57;2.47;;;7.10;99.90;;;;;;5092976;28;20058;-93
2023/01/14 09:51:17;;;;;;;10.85;2.17;;;7.10;99.90;;;;;;5074776;28;20523;-93
2023/01/14 09:54:17;;;;;;;9.93;2.10;;;7.10;99.90;;;;;;5075562;28;20517;-93
2023/01/14 09:57:25;;;;;;;12.55;2.95;;;7.10;99.90;;;;;;5092301;28;20378;-94
2023/01/14 10:00:00;;;;;;;14.50;2.35;;;7.20;99.90;;;;;;5075781;28;20083;-94
2023/01/14 10:02:44;;;;;;;7.68;1.63;;;7.20;99.90;;;;;;5065736;28;20048;-94
2023/01/14 10:05:33;;;;;;;9.57;2.30;;;7.20;99.90;;;;;;5076094;28;20042;-94
2023/01/14 10:08:15;;;;;;;8.60;2.13;;;7.20;99.90;;;;;;5078323;28;20039;-93
2023/01/14 10:10:46;;;;;;;11.68;1.90;;;7.20;99.90;;;;;;5078294;28;20515;-93
2023/01/14 10:13:38;;;;;;;8.23;1.88;;;7.30;99.90;;;;;;5078356;28;20042;-95
2023/01/14 10:16:18;;;;;;;7.65;2.00;;;7.20;99.90;;;;;;5096971;28;20031;-93
2023/01/14 10:19:05;;;;;;;7.53;2.33;;;7.30;99.90;;;;;;5080364;28;20499;-93
2023/01/14 10:22:09;;;;;;;7.53;1.80;;;7.30;99.90;;;;;;5079623;28;20417;-94
2023/01/14 10:24:35;;;;;;;13.00;2.35;;;7.30;99.90;;;;;;5050829;28;20048;-94
2023/01/14 10:27:11;;;;;;;10.25;2.80;;;7.30;99.90;;;;;;5103474;28;20035;-93
2023/01/14 10:29:45;;;;;;;10.38;2.63;;;7.30;99.90;;;;;;5078792;28;20039;-93
2023/01/14 10:32:24;;;;;;;10.90;2.90;;;7.40;99.90;;;;;;5073101;28;20042;-94
2023/01/14 10:34:59;;;;;;;8.27;2.15;;;7.40;99.90;;;;;;5089185;28;20047;-93
2023/01/14 10:37:25;;;;;;;6.88;2.40;;;7.40;99.90;;;;;;5084634;28;20031;-94
2023/01/14 10:39:55;;;;;;;9.07;2.28;;;7.40;99.90;;;;;;5084959;28;20048;-93
2023/01/14 10:42:29;;;;;;;11.48;2.53;;;7.40;99.90;;;;;;5066556;28;20077;-93
2023/01/14 10:45:04;;;;;;;9.57;2.95;;;7.50;99.90;;;;;;5067810;28;20051;-94
2023/01/14 10:47:45;;;;;;;5.95;2.03;;;7.50;99.90;;;;;;5068412;28;20036;-93
2023/01/14 10:50:37;;;;;;;11.85;2.10;;;7.50;99.90;;;;;;5067691;28;20656;-94
2023/01/14 10:53:40;;;;;;;7.70;1.93;;;7.50;99.90;;;;;;5070910;28;20043;-94
2023/01/14 10:56:09;;;;;;;5.65;2.03;;;7.50;99.90;;;;;;4985265;28;20049;-94
2023/01/14 10:58:50;;;;;;;9.25;2.40;;;7.60;99.90;;;;;;4965426;28;20522;-93
2023/01/14 11:01:24;;;;;;;10.20;2.45;;;7.60;99.90;;;;;;4968464;28;20081;-93
2023/01/14 11:03:53;;;;;;;6.80;1.60;;;7.60;99.90;;;;;;4975334;28;20046;-94
2023/01/14 11:06:44;;;;;;;;;;;;;;;;;;;;;
2023/01/14 11:09:32;;;;;;;6.63;2.03;;;7.70;99.90;;;;;;4984356;28;20053;-94
2023/01/14 11:12:02;;;;;;;6.57;1.67;;;7.70;99.90;;;;;;4960291;28;20432;-93
2023/01/14 11:14:33;;;;;;;9.38;1.67;;;7.80;99.90;;;;;;4983019;28;20064;-94
2023/01/14 11:17:25;;;;;;;4.80;1.65;;;7.80;99.90;;;;;;4997747;28;20115;-94
2023/01/14 11:20:11;;;;;;;5.82;1.40;;;7.80;99.90;;;;;;4992039;28;20100;-95
2023/01/14 11:22:40;;;;;;;4.18;1.27;;;7.90;99.90;;;;;;4977140;28;20049;-94
2023/01/14 11:25:25;;;;;;;7.32;1.50;;;7.90;99.90;;;;;;5003646;28;20173;-93
2023/01/14 11:28:03;;;;;;;7.68;1.60;;;7.90;99.90;;;;;;4958547;28;20121;-93
2023/01/14 11:30:43;;;;;;;6.93;1.55;;;7.90;99.90;;;;;;4966758;28;20678;-93
2023/01/14 11:33:21;;;;;;;7.32;1.50;;;7.90;99.90;;;;;;5092437;28;20127;-94
2023/01/14 11:36:02;;;;;;;3.60;1.23;;;7.90;99.90;;;;;;5079052;28;20051;-93
2023/01/14 11:38:31;;;;;;;6.72;1.58;;;8.00;99.90;;;;;;5078139;28;20043;-93
2023/01/14 11:44:14;;;;;;;6.40;1.40;;;8.00;99.90;;;;;;5020943;28;20128;-93
2023/01/14 11:46:43;;;;;;;4.22;1.17;;;8.00;99.90;;;;;;5063304;28;20142;-94
2023/01/14 11:49:16;;;;;;;6.53;1.10;;;8.00;99.90;;;;;;5063349;28;20392;-93
2023/01/14 11:51:59;;;;;;;7.03;1.70;;;8.00;99.90;;;;;;5079165;28;20119;-93
2023/01/14 11:54:40;;;;;;;5.68;1.52;;;8.00;99.90;;;;;;5092114;28;20046;-93
2023/01/14 11:57:15;;;;;;;7.28;1.38;;;8.10;99.90;;;;;;5094757;28;20059;-94
2023/01/14 11:59:45;;;;;;;5.70;1.20;;;8.10;99.90;;;;;;5077953;28;20135;-93
2023/01/14 12:02:10;;;;;;;6.10;1.65;;;8.10;99.90;;;;;;5092418;28;20071;-93
2023/01/14 12:04:57;;;;;;;8.43;1.40;;;8.10;99.90;;;;;;5077164;28;20083;-93
2023/01/14 12:07:35;;;;;;;3.33;1.15;;;8.10;99.90;;;;;;5077039;28;20063;-93
2023/01/14 12:10:23;;;;;;;8.35;1.42;;;8.10;99.90;;;;;;5093209;28;20046;-94
2023/01/14 12:19:16;;;;;;;8.98;1.67;;;8.20;99.90;;;;;;5095326;28;20051;-93
2023/01/14 12:21:47;;;;;;;5.05;1.40;;;8.30;99.90;;;;;;5092922;28;20051;-93
2023/01/14 12:24:22;;;;;;;5.85;1.13;;;8.30;99.90;;;;;;5073717;28;20048;-91
2023/01/14 12:26:49;;;;;;;5.93;1.30;;;8.30;99.90;;;;;;5076594;28;20039;-92
2023/01/14 12:29:23;;;;;;;4.57;1.20;;;8.30;99.90;;;;;;5075594;28;20046;-91
2023/01/14 12:32:12;;;;;;;3.45;0.90;;;8.30;99.90;;;;;;5074829;28;20122;-91
2023/01/14 12:34:49;;;;;;;3.22;1.00;;;8.40;99.90;;;;;;5093190;28;20050;-91
2023/01/14 12:37:59;;;;;;;4.93;1.23;;;8.40;99.90;;;;;;5093250;28;20031;-91
2023/01/14 12:46:16;;;;;;;3.50;1.10;;;8.50;99.90;;;;;;5092895;28;20044;-92
2023/01/14 12:48:42;;;;;;;3.67;1.23;;;8.50;99.90;;;;;;5076282;28;20122;-92
2023/01/14 12:51:19;;;;;;;3.05;0.98;;;8.50;99.90;;;;;;5074873;28;20397;-92
2023/01/14 12:53:50;;;;;;;6.35;1.80;;;8.60;99.90;;;;;;5075759;28;20044;-92
2023/01/14 12:56:27;;;;;;;3.95;1.02;;;8.60;99.90;;;;;;5076034;28;20036;-92
2023/01/14 12:58:56;;;;;;;2.63;0.90;;;8.60;99.90;;;;;;5093450;28;20381;-93
2023/01/14 13:01:25;;;;;;;6.10;1.15;;;8.60;99.90;;;;;;5091394;28;20047;-92
2023/01/14 13:04:03;;;;;;;6.53;1.00;;;8.70;99.90;;;;;;5083507;28;20044;-92
2023/01/14 13:06:35;;;;;;;4.82;1.10;;;8.70;99.90;;;;;;5068069;28;20036;-92
2023/01/14 13:09:04;;;;;;;1.40;0.73;;;8.80;99.90;;;;;;5061002;28;20093;-92
2023/01/14 13:11:47;;;;;;;2.97;1.25;;;8.80;99.90;;;;;;5055413;28;20043;-92
2023/01/14 13:14:37;;;;;;;5.57;1.03;;;8.80;99.90;;;;;;5076661;28;20442;-92
2023/01/14 13:17:21;;;;;;;2.17;0.90;;;8.80;99.90;;;;;;5093125;28;20078;-92
2023/01/14 13:19:52;;;;;;;3.85;0.90;;;8.80;99.90;;;;;;5075530;28;20130;-92
2023/01/14 13:22:45;;;;;;;4.45;0.90;;;8.90;99.90;;;;;;5075042;28;20320;-93
2023/01/14 13:25:33;;;;;;;3.17;1.08;;;9.00;99.90;;;;;;5075428;28;20054;-92
2023/01/14 13:28:25;;;;;;;2.58;0.70;;;9.00;99.90;;;;;;5091718;28;20044;-91
2023/01/14 13:31:02;;;;;;;4.95;0.90;;;9.00;99.90;;;;;;5010151;28;20045;-93
2023/01/14 13:33:32;;;;;;;2.33;0.80;;;9.10;99.90;;;;;;4980195;28;20089;-93
2023/01/14 13:36:09;;;;;;;2.65;0.80;;;9.10;99.90;;;;;;4992239;28;20050;-93
2023/01/14 13:39:00;;;;;;;2.15;0.85;;;9.10;99.90;;;;;;4974880;28;20492;-92
2023/01/14 13:41:48;;;;;;;3.78;0.82;;;9.20;99.90;;;;;;4994479;28;20104;-92
2023/01/14 13:44:32;;;;;;;2.83;0.93;;;9.30;99.90;;;;;;5000941;28;20045;-93
2023/01/14 13:47:02;;;;;;;2.53;0.70;;;9.30;99.90;;;;;;5031710;28;20076;-92
2023/01/14 13:49:30;;;;;;;3.45;0.77;;;9.30;99.90;;;;;;4998482;28;20057;-92
2023/01/14 13:52:04;;;;;;;1.67;0.70;;;9.40;99.90;;;;;;5013832;28;20063;-92
2023/01/14 13:54:34;;;;;;;2.85;0.75;;;9.40;99.90;;;;;;5012908;28;20120;-93
2023/01/14 13:57:15;;;;;;;1.75;0.63;;;9.40;99.90;;;;;;5016935;28;20042;-92
2023/01/14 13:59:48;;;;;;;2.22;0.88;;;9.50;99.90;;;;;;4994053;28;20097;-92
2023/01/14 14:03:03;;;;;;;0.80;0.43;;;9.50;99.90;;;;;;5004482;28;20049;-92
2023/01/14 14:05:30;;;;;;;1.52;0.77;;;9.50;99.90;;;;;;4918166;29;20062;-92
2023/01/14 14:07:57;;;;;;;1.63;0.70;;;9.50;99.90;;;;;;4941403;28;20069;-93
2023/01/14 14:10:43;;;;;;;2.60;0.70;;;9.50;99.90;;;;;;4958841;28;20089;-93
2023/01/14 14:16:10;;;;;;;1.65;0.60;;;9.60;99.90;;;;;;4995196;28;20050;-93
2023/01/14 14:18:40;;;;;;;1.85;0.57;;;9.60;99.90;;;;;;4995854;28;20483;-93
2023/01/14 14:21:20;;;;;;;1.20;0.60;;;9.60;99.90;;;;;;4994041;28;20056;-93
2023/01/14 14:23:52;;;;;;;2.97;0.80;;;9.60;99.90;;;;;;4995006;28;20104;-93
2023/01/14 14:26:25;;;;;;;1.67;0.77;;;9.60;99.90;;;;;;4979896;28;20042;-93
2023/01/14 14:28:54;;;;;;;;;;;9.60;99.90;;;;;;4960132;28;20110;-93
2023/01/14 14:31:26;;;;;;;1.35;0.55;;;9.60;99.90;;;;;;4965063;28;19917;-93
2023/01/14 14:34:01;;;;;;;1.70;0.60;;;9.60;99.90;;;;;;4971545;28;20046;-93
2023/01/14 14:36:27;;;;;;;1.05;0.60;;;9.60;99.90;;;;;;4990059;28;20045;-93